sensor_id;sensor_type;location;lat;lon;timestamp;temperature;humidity
34766;DHT22;20984;43.508;1.504;2022-12-07T00:00:49;7.50;99.90
34766;DHT22;20984;43.508;1.504;2022-12-07T00:03:15;7.40;99.90
34766;DHT22;20984;43.508;1.504;2022-12-07T00:05:40;7.40;99.90
34766;DHT22;20984;43.508;1.504;2022-12-07T00:08:06;7.40;99.90
34766;DHT22;20984;43.508;1.504;2022-12-07T00:10:34;7.30;99.90
34766;DHT22;20984;43.508;1.504;2022-12-07T00:12:59;7.30;99.90
34766;DHT22;20984;43.508;1.504;2022-12-07T00:15:25;7.40;99.90
34766;DHT22;20984;43.508;1.504;2022-12-07T00:17:51;7.40;99.90
34766;DHT22;20984;43.508;1.504;2022-12-07T00:20:17;7.40;99.90
34766;DHT22;20984;43.508;1.504;2022-12-07T00:22:43;7.30;99.90
34766;DHT22;20984;43.508;1.504;2022-12-07T00:25:08;7.30;99.90
34766;DHT22;20984;43.508;1.504;2022-12-07T00:27:34;7.30;99.90
34766;DHT22;20984;43.508;1.504;2022-12-07T00:30:00;7.30;99.90
34766;DHT22;20984;43.508;1.504;2022-12-07T00:32:26;7.30;99.90
34766;DHT22;20984;43.508;1.504;2022-12-07T00:34:52;7.40;99.90
34766;DHT22;20984;43.508;1.504;2022-12-07T00:37:18;7.40;99.90
34766;DHT22;20984;43.508;1.504;2022-12-07T00:39:45;7.40;99.90
34766;DHT22;20984;43.508;1.504;2022-12-07T00:42:12;7.40;99.90
34766;DHT22;20984;43.508;1.504;2022-12-07T00:44:37;7.40;99.90
34766;DHT22;20984;43.508;1.504;2022-12-07T00:47:03;7.40;99.90
34766;DHT22;20984;43.508;1.504;2022-12-07T00:49:29;7.40;99.90
34766;DHT22;20984;43.508;1.504;2022-12-07T00:51:55;7.40;99.90
34766;DHT22;20984;43.508;1.504;2022-12-07T00:54:21;7.40;99.90
34766;DHT22;20984;43.508;1.504;2022-12-07T00:56:46;7.40;99.90
34766;DHT22;20984;43.508;1.504;2022-12-07T00:59:13;7.40;99.90
34766;DHT22;20984;43.508;1.504;2022-12-07T01:01:40;7.40;99.90
34766;DHT22;20984;43.508;1.504;2022-12-07T01:04:06;7.40;99.90
34766;DHT22;20984;43.508;1.504;2022-12-07T01:06:32;7.40;99.90
34766;DHT22;20984;43.508;1.504;2022-12-07T01:08:58;7.30;99.90
34766;DHT22;20984;43.508;1.504;2022-12-07T01:11:26;7.30;99.90
34766;DHT22;20984;43.508;1.504;2022-12-07T01:13:54;7.20;99.90
34766;DHT22;20984;43.508;1.504;2022-12-07T01:16:22;7.20;99.90
34766;DHT22;20984;43.508;1.504;2022-12-07T01:18:50;7.20;99.90
34766;DHT22;20984;43.508;1.504;2022-12-07T01:21:23;7.20;99.90
34766;DHT22;20984;43.508;1.504;2022-12-07T01:23:49;7.20;99.90
34766;DHT22;20984;43.508;1.504;2022-12-07T01:26:18;7.20;99.90
34766;DHT22;20984;43.508;1.504;2022-12-07T01:28:45;7.10;99.90
34766;DHT22;20984;43.508;1.504;2022-12-07T01:31:13;7.10;99.90
34766;DHT22;20984;43.508;1.504;2022-12-07T01:33:42;7.10;99.90
34766;DHT22;20984;43.508;1.504;2022-12-07T01:39:10;7.00;99.90
34766;DHT22;20984;43.508;1.504;2022-12-07T01:41:38;7.00;99.90
34766;DHT22;20984;43.508;1.504;2022-12-07T01:46:43;7.00;99.90
34766;DHT22;20984;43.508;1.504;2022-12-07T01:51:46;7.00;99.90
34766;DHT22;20984;43.508;1.504;2022-12-07T01:54:13;7.00;99.90
34766;DHT22;20984;43.508;1.504;2022-12-07T01:56:43;7.00;99.90
34766;DHT22;20984;43.508;1.504;2022-12-07T01:59:09;7.00;99.90
34766;DHT22;20984;43.508;1.504;2022-12-07T02:01:35;7.00;99.90
34766;DHT22;20984;43.508;1.504;2022-12-07T02:04:01;6.90;99.90
34766;DHT22;20984;43.508;1.504;2022-12-07T02:06:27;6.90;99.90
34766;DHT22;20984;43.508;1.504;2022-12-07T02:08:54;6.90;99.90
34766;DHT22;20984;43.508;1.504;2022-12-07T02:11:20;6.90;99.90
34766;DHT22;20984;43.508;1.504;2022-12-07T02:13:47;6.80;99.90
34766;DHT22;20984;43.508;1.504;2022-12-07T02:16:31;6.80;99.90
34766;DHT22;20984;43.508;1.504;2022-12-07T02:22:36;6.80;99.90
34766;DHT22;20984;43.508;1.504;2022-12-07T02:26:15;6.80;99.90
34766;DHT22;20984;43.508;1.504;2022-12-07T02:30:50;6.80;99.90
34766;DHT22;20984;43.508;1.504;2022-12-07T02:33:28;6.80;99.90
34766;DHT22;20984;43.508;1.504;2022-12-07T02:36:10;6.80;99.90
34766;DHT22;20984;43.508;1.504;2022-12-07T02:38:43;6.80;99.90
34766;DHT22;20984;43.508;1.504;2022-12-07T02:43:55;6.80;99.90
34766;DHT22;20984;43.508;1.504;2022-12-07T02:46:27;6.80;99.90
34766;DHT22;20984;43.508;1.504;2022-12-07T02:48:55;6.80;99.90
34766;DHT22;20984;43.508;1.504;2022-12-07T02:51:22;6.80;99.90
34766;DHT22;20984;43.508;1.504;2022-12-07T02:53:48;6.70;99.90
34766;DHT22;20984;43.508;1.504;2022-12-07T02:56:38;6.80;99.90
34766;DHT22;20984;43.508;1.504;2022-12-07T03:10:08;6.80;99.90
34766;DHT22;20984;43.508;1.504;2022-12-07T03:12:52;6.80;99.90
34766;DHT22;20984;43.508;1.504;2022-12-07T03:15:46;6.80;99.90
34766;DHT22;20984;43.508;1.504;2022-12-07T03:18:17;6.80;99.90
34766;DHT22;20984;43.508;1.504;2022-12-07T03:20:46;6.80;99.90
34766;DHT22;20984;43.508;1.504;2022-12-07T03:23:15;6.80;99.90
34766;DHT22;20984;43.508;1.504;2022-12-07T03:25:47;6.80;99.90
34766;DHT22;20984;43.508;1.504;2022-12-07T03:28:16;6.90;99.90
34766;DHT22;20984;43.508;1.504;2022-12-07T03:30:55;6.80;99.90
34766;DHT22;20984;43.508;1.504;2022-12-07T03:33:24;6.90;99.90
34766;DHT22;20984;43.508;1.504;2022-12-07T03:36:01;6.90;99.90
34766;DHT22;20984;43.508;1.504;2022-12-07T03:38:35;6.90;99.90
34766;DHT22;20984;43.508;1.504;2022-12-07T03:41:22;6.90;99.90
34766;DHT22;20984;43.508;1.504;2022-12-07T03:43:49;6.90;99.90
34766;DHT22;20984;43.508;1.504;2022-12-07T03:46:37;6.90;99.90
34766;DHT22;20984;43.508;1.504;2022-12-07T03:51:54;6.90;99.90
34766;DHT22;20984;43.508;1.504;2022-12-07T03:54:26;6.90;99.90
34766;DHT22;20984;43.508;1.504;2022-12-07T03:56:54;6.90;99.90
34766;DHT22;20984;43.508;1.504;2022-12-07T03:59:21;6.90;99.90
34766;DHT22;20984;43.508;1.504;2022-12-07T04:01:56;6.90;99.90
34766;DHT22;20984;43.508;1.504;2022-12-07T04:04:23;6.90;99.90
34766;DHT22;20984;43.508;1.504;2022-12-07T04:06:50;6.90;99.90
34766;DHT22;20984;43.508;1.504;2022-12-07T04:09:16;6.90;99.90
34766;DHT22;20984;43.508;1.504;2022-12-07T04:11:42;6.90;99.90
34766;DHT22;20984;43.508;1.504;2022-12-07T04:14:08;6.90;99.90
34766;DHT22;20984;43.508;1.504;2022-12-07T04:16:48;6.90;99.90
34766;DHT22;20984;43.508;1.504;2022-12-07T04:19:14;6.90;99.90
34766;DHT22;20984;43.508;1.504;2022-12-07T04:21:40;6.90;99.90
34766;DHT22;20984;43.508;1.504;2022-12-07T04:24:06;6.90;99.90
34766;DHT22;20984;43.508;1.504;2022-12-07T04:26:32;6.90;99.90
34766;DHT22;20984;43.508;1.504;2022-12-07T04:28:58;6.90;99.90
34766;DHT22;20984;43.508;1.504;2022-12-07T04:31:24;6.90;99.90
34766;DHT22;20984;43.508;1.504;2022-12-07T04:33:50;6.90;99.90
34766;DHT22;20984;43.508;1.504;2022-12-07T04:36:16;6.90;99.90
34766;DHT22;20984;43.508;1.504;2022-12-07T04:38:42;6.90;99.90
34766;DHT22;20984;43.508;1.504;2022-12-07T04:41:09;6.90;99.90
34766;DHT22;20984;43.508;1.504;2022-12-07T04:43:35;6.90;99.90
34766;DHT22;20984;43.508;1.504;2022-12-07T04:46:01;6.90;99.90
34766;DHT22;20984;43.508;1.504;2022-12-07T04:48:27;6.90;99.90
34766;DHT22;20984;43.508;1.504;2022-12-07T04:50:53;6.90;99.90
34766;DHT22;20984;43.508;1.504;2022-12-07T04:53:19;6.90;99.90
34766;DHT22;20984;43.508;1.504;2022-12-07T04:55:45;6.90;99.90
34766;DHT22;20984;43.508;1.504;2022-12-07T04:58:12;6.90;99.90
34766;DHT22;20984;43.508;1.504;2022-12-07T05:00:39;6.90;99.90
34766;DHT22;20984;43.508;1.504;2022-12-07T05:03:05;6.90;99.90
34766;DHT22;20984;43.508;1.504;2022-12-07T05:05:31;6.90;99.90
34766;DHT22;20984;43.508;1.504;2022-12-07T05:07:57;6.90;99.90
34766;DHT22;20984;43.508;1.504;2022-12-07T05:10:23;7.00;99.90
34766;DHT22;20984;43.508;1.504;2022-12-07T05:12:49;7.00;99.90
34766;DHT22;20984;43.508;1.504;2022-12-07T05:15:15;7.00;99.90
34766;DHT22;20984;43.508;1.504;2022-12-07T05:17:42;7.00;99.90
34766;DHT22;20984;43.508;1.504;2022-12-07T05:20:09;7.00;99.90
34766;DHT22;20984;43.508;1.504;2022-12-07T05:22:35;7.00;99.90
34766;DHT22;20984;43.508;1.504;2022-12-07T05:25:01;7.00;99.90
34766;DHT22;20984;43.508;1.504;2022-12-07T05:27:27;7.00;99.90
34766;DHT22;20984;43.508;1.504;2022-12-07T05:29:53;7.00;99.90
34766;DHT22;20984;43.508;1.504;2022-12-07T05:32:19;7.00;99.90
34766;DHT22;20984;43.508;1.504;2022-12-07T05:34:45;7.00;99.90
34766;DHT22;20984;43.508;1.504;2022-12-07T05:37:10;7.00;99.90
34766;DHT22;20984;43.508;1.504;2022-12-07T05:39:36;7.00;99.90
34766;DHT22;20984;43.508;1.504;2022-12-07T05:42:06;7.00;99.90
34766;DHT22;20984;43.508;1.504;2022-12-07T05:44:38;7.00;99.90
34766;DHT22;20984;43.508;1.504;2022-12-07T05:47:05;7.00;99.90
34766;DHT22;20984;43.508;1.504;2022-12-07T05:49:30;7.00;99.90
34766;DHT22;20984;43.508;1.504;2022-12-07T05:51:57;7.00;99.90
34766;DHT22;20984;43.508;1.504;2022-12-07T05:54:23;7.00;99.90
34766;DHT22;20984;43.508;1.504;2022-12-07T05:56:49;7.00;99.90
34766;DHT22;20984;43.508;1.504;2022-12-07T05:59:15;7.00;99.90
34766;DHT22;20984;43.508;1.504;2022-12-07T06:04:21;6.90;99.90
34766;DHT22;20984;43.508;1.504;2022-12-07T06:06:47;7.00;99.90
34766;DHT22;20984;43.508;1.504;2022-12-07T06:09:14;6.90;99.90
34766;DHT22;20984;43.508;1.504;2022-12-07T06:11:40;6.90;99.90
34766;DHT22;20984;43.508;1.504;2022-12-07T06:14:24;6.90;99.90
34766;DHT22;20984;43.508;1.504;2022-12-07T06:16:50;6.90;99.90
34766;DHT22;20984;43.508;1.504;2022-12-07T06:19:17;6.90;99.90
34766;DHT22;20984;43.508;1.504;2022-12-07T06:21:42;6.90;99.90
34766;DHT22;20984;43.508;1.504;2022-12-07T06:24:13;6.90;99.90
34766;DHT22;20984;43.508;1.504;2022-12-07T06:26:39;6.90;99.90
34766;DHT22;20984;43.508;1.504;2022-12-07T06:29:06;6.80;99.90
34766;DHT22;20984;43.508;1.504;2022-12-07T06:31:32;6.80;99.90
34766;DHT22;20984;43.508;1.504;2022-12-07T06:34:03;6.90;99.90
34766;DHT22;20984;43.508;1.504;2022-12-07T06:36:29;6.80;99.90
34766;DHT22;20984;43.508;1.504;2022-12-07T06:38:55;6.80;99.90
34766;DHT22;20984;43.508;1.504;2022-12-07T06:41:21;6.80;99.90
34766;DHT22;20984;43.508;1.504;2022-12-07T06:43:48;6.80;99.90
34766;DHT22;20984;43.508;1.504;2022-12-07T06:46:14;6.80;99.90
34766;DHT22;20984;43.508;1.504;2022-12-07T06:48:41;6.80;99.90
34766;DHT22;20984;43.508;1.504;2022-12-07T06:51:07;6.80;99.90
34766;DHT22;20984;43.508;1.504;2022-12-07T06:53:33;6.70;99.90
34766;DHT22;20984;43.508;1.504;2022-12-07T06:55:59;6.70;99.90
34766;DHT22;20984;43.508;1.504;2022-12-07T06:58:25;6.70;99.90
34766;DHT22;20984;43.508;1.504;2022-12-07T07:00:51;6.70;99.90
34766;DHT22;20984;43.508;1.504;2022-12-07T07:03:17;6.70;99.90
34766;DHT22;20984;43.508;1.504;2022-12-07T07:05:44;6.70;99.90
34766;DHT22;20984;43.508;1.504;2022-12-07T07:08:10;6.70;99.90
34766;DHT22;20984;43.508;1.504;2022-12-07T07:10:36;6.70;99.90
34766;DHT22;20984;43.508;1.504;2022-12-07T07:13:03;6.70;99.90
34766;DHT22;20984;43.508;1.504;2022-12-07T07:15:29;6.60;99.90
34766;DHT22;20984;43.508;1.504;2022-12-07T07:17:55;6.60;99.90
34766;DHT22;20984;43.508;1.504;2022-12-07T07:20:21;6.60;99.90
34766;DHT22;20984;43.508;1.504;2022-12-07T07:22:48;6.60;99.90
34766;DHT22;20984;43.508;1.504;2022-12-07T07:25:14;6.60;99.90
34766;DHT22;20984;43.508;1.504;2022-12-07T07:27:40;6.60;99.90
34766;DHT22;20984;43.508;1.504;2022-12-07T07:30:06;6.60;99.90
34766;DHT22;20984;43.508;1.504;2022-12-07T07:32:32;6.60;99.90
34766;DHT22;20984;43.508;1.504;2022-12-07T07:34:58;6.60;99.90
34766;DHT22;20984;43.508;1.504;2022-12-07T07:37:25;6.60;99.90
34766;DHT22;20984;43.508;1.504;2022-12-07T07:39:51;6.60;99.90
34766;DHT22;20984;43.508;1.504;2022-12-07T07:42:17;6.60;99.90
34766;DHT22;20984;43.508;1.504;2022-12-07T07:44:43;6.70;99.90
34766;DHT22;20984;43.508;1.504;2022-12-07T07:47:09;6.70;99.90
34766;DHT22;20984;43.508;1.504;2022-12-07T07:49:35;6.70;99.90
34766;DHT22;20984;43.508;1.504;2022-12-07T07:52:00;6.70;99.90
34766;DHT22;20984;43.508;1.504;2022-12-07T07:54:26;6.70;99.90
34766;DHT22;20984;43.508;1.504;2022-12-07T07:56:53;6.80;99.90
34766;DHT22;20984;43.508;1.504;2022-12-07T07:59:19;6.90;99.90
34766;DHT22;20984;43.508;1.504;2022-12-07T08:01:44;6.90;99.90
34766;DHT22;20984;43.508;1.504;2022-12-07T08:04:10;7.00;99.90
34766;DHT22;20984;43.508;1.504;2022-12-07T08:06:36;7.00;99.90
34766;DHT22;20984;43.508;1.504;2022-12-07T08:09:02;7.10;99.90
34766;DHT22;20984;43.508;1.504;2022-12-07T08:11:29;7.20;99.90
34766;DHT22;20984;43.508;1.504;2022-12-07T08:13:54;7.20;99.90
34766;DHT22;20984;43.508;1.504;2022-12-07T08:16:20;7.20;99.90
34766;DHT22;20984;43.508;1.504;2022-12-07T08:18:46;7.30;99.90
34766;DHT22;20984;43.508;1.504;2022-12-07T08:21:14;7.30;99.90
34766;DHT22;20984;43.508;1.504;2022-12-07T08:23:40;7.40;99.90
34766;DHT22;20984;43.508;1.504;2022-12-07T08:26:09;7.50;99.90
34766;DHT22;20984;43.508;1.504;2022-12-07T08:28:35;7.50;99.90
34766;DHT22;20984;43.508;1.504;2022-12-07T08:31:03;7.60;99.90
34766;DHT22;20984;43.508;1.504;2022-12-07T08:33:29;7.70;99.90
34766;DHT22;20984;43.508;1.504;2022-12-07T08:36:04;7.80;99.90
34766;DHT22;20984;43.508;1.504;2022-12-07T08:38:31;7.90;99.90
34766;DHT22;20984;43.508;1.504;2022-12-07T08:40:57;7.90;99.90
34766;DHT22;20984;43.508;1.504;2022-12-07T08:43:24;7.90;99.90
34766;DHT22;20984;43.508;1.504;2022-12-07T08:48:45;8.00;99.90
34766;DHT22;20984;43.508;1.504;2022-12-07T08:51:12;7.90;99.90
34766;DHT22;20984;43.508;1.504;2022-12-07T08:53:39;7.90;99.90
34766;DHT22;20984;43.508;1.504;2022-12-07T08:56:06;7.90;99.90
34766;DHT22;20984;43.508;1.504;2022-12-07T08:58:33;7.90;99.90
34766;DHT22;20984;43.508;1.504;2022-12-07T09:00:59;7.90;99.90
34766;DHT22;20984;43.508;1.504;2022-12-07T09:03:25;7.90;99.90
34766;DHT22;20984;43.508;1.504;2022-12-07T09:05:53;7.90;99.90
34766;DHT22;20984;43.508;1.504;2022-12-07T09:08:19;7.90;99.90
34766;DHT22;20984;43.508;1.504;2022-12-07T09:10:46;8.00;99.90
34766;DHT22;20984;43.508;1.504;2022-12-07T09:13:13;8.00;99.90
34766;DHT22;20984;43.508;1.504;2022-12-07T09:15:39;8.00;99.90
34766;DHT22;20984;43.508;1.504;2022-12-07T09:18:05;8.10;99.90
34766;DHT22;20984;43.508;1.504;2022-12-07T09:20:31;8.20;99.90
34766;DHT22;20984;43.508;1.504;2022-12-07T09:22:56;8.40;99.90
34766;DHT22;20984;43.508;1.504;2022-12-07T09:25:22;8.40;99.90
34766;DHT22;20984;43.508;1.504;2022-12-07T09:27:54;8.50;99.90
34766;DHT22;20984;43.508;1.504;2022-12-07T09:30:20;8.60;99.90
34766;DHT22;20984;43.508;1.504;2022-12-07T09:32:46;8.60;99.90
34766;DHT22;20984;43.508;1.504;2022-12-07T09:35:12;8.70;99.90
34766;DHT22;20984;43.508;1.504;2022-12-07T09:37:37;8.70;99.90
34766;DHT22;20984;43.508;1.504;2022-12-07T09:40:04;8.80;99.90
34766;DHT22;20984;43.508;1.504;2022-12-07T09:42:39;8.90;99.90
34766;DHT22;20984;43.508;1.504;2022-12-07T09:45:10;8.90;99.90
34766;DHT22;20984;43.508;1.504;2022-12-07T09:47:37;8.90;99.90
34766;DHT22;20984;43.508;1.504;2022-12-07T09:50:12;8.90;99.90
34766;DHT22;20984;43.508;1.504;2022-12-07T09:52:38;8.90;99.90
34766;DHT22;20984;43.508;1.504;2022-12-07T09:55:12;8.80;99.90
34766;DHT22;20984;43.508;1.504;2022-12-07T09:57:38;8.70;99.90
34766;DHT22;20984;43.508;1.504;2022-12-07T10:00:10;8.70;99.90
34766;DHT22;20984;43.508;1.504;2022-12-07T10:02:58;8.70;99.90
34766;DHT22;20984;43.508;1.504;2022-12-07T10:05:29;8.60;99.90
34766;DHT22;20984;43.508;1.504;2022-12-07T10:07:55;8.60;99.90
34766;DHT22;20984;43.508;1.504;2022-12-07T10:10:29;8.60;99.90
34766;DHT22;20984;43.508;1.504;2022-12-07T10:13:10;8.60;99.90
34766;DHT22;20984;43.508;1.504;2022-12-07T10:15:56;8.50;99.90
34766;DHT22;20984;43.508;1.504;2022-12-07T10:18:30;8.60;99.90
34766;DHT22;20984;43.508;1.504;2022-12-07T10:21:11;8.60;99.90
34766;DHT22;20984;43.508;1.504;2022-12-07T10:32:33;8.90;99.90
34766;DHT22;20984;43.508;1.504;2022-12-07T10:34:39;9.00;99.90
34766;DHT22;20984;43.508;1.504;2022-12-07T10:39:48;9.30;99.90
34766;DHT22;20984;43.508;1.504;2022-12-07T10:42:31;9.40;99.90
34766;DHT22;20984;43.508;1.504;2022-12-07T10:45:17;9.50;99.90
34766;DHT22;20984;43.508;1.504;2022-12-07T10:53:23;9.80;99.90
34766;DHT22;20984;43.508;1.504;2022-12-07T11:12:53;10.20;99.90
34766;DHT22;20984;43.508;1.504;2022-12-07T11:15:42;10.30;99.90
34766;DHT22;20984;43.508;1.504;2022-12-07T11:36:50;10.40;99.90
34766;DHT22;20984;43.508;1.504;2022-12-07T11:41:43;10.60;99.90
34766;DHT22;20984;43.508;1.504;2022-12-07T11:44:33;10.60;99.90
34766;DHT22;20984;43.508;1.504;2022-12-07T11:47:30;10.70;99.90
34766;DHT22;20984;43.508;1.504;2022-12-07T11:50:30;10.80;99.90
34766;DHT22;20984;43.508;1.504;2022-12-07T11:52:58;10.90;99.90
34766;DHT22;20984;43.508;1.504;2022-12-07T11:58:35;11.00;99.90
34766;DHT22;20984;43.508;1.504;2022-12-07T12:03:52;11.10;99.90
34766;DHT22;20984;43.508;1.504;2022-12-07T12:06:19;11.20;99.90
34766;DHT22;20984;43.508;1.504;2022-12-07T12:14:01;11.40;99.90
34766;DHT22;20984;43.508;1.504;2022-12-07T12:22:18;11.50;99.90
34766;DHT22;20984;43.508;1.504;2022-12-07T12:24:45;11.60;99.90
34766;DHT22;20984;43.508;1.504;2022-12-07T12:30:35;11.50;99.90
34766;DHT22;20984;43.508;1.504;2022-12-07T12:33:13;11.50;99.90
34766;DHT22;20984;43.508;1.504;2022-12-07T12:35:40;11.60;99.90
34766;DHT22;20984;43.508;1.504;2022-12-07T12:40:47;11.60;99.90
34766;DHT22;20984;43.508;1.504;2022-12-07T12:43:51;11.60;99.90
34766;DHT22;20984;43.508;1.504;2022-12-07T12:51:52;11.50;99.90
34766;DHT22;20984;43.508;1.504;2022-12-07T12:54:31;11.40;99.90
34766;DHT22;20984;43.508;1.504;2022-12-07T12:57:24;11.50;99.90
34766;DHT22;20984;43.508;1.504;2022-12-07T13:18:25;11.80;99.90
34766;DHT22;20984;43.508;1.504;2022-12-07T13:29:17;11.90;99.90
34766;DHT22;20984;43.508;1.504;2022-12-07T13:31:55;11.80;99.90
34766;DHT22;20984;43.508;1.504;2022-12-07T13:34:41;11.80;99.90
34766;DHT22;20984;43.508;1.504;2022-12-07T13:37:25;11.80;99.90
34766;DHT22;20984;43.508;1.504;2022-12-07T13:39:56;11.90;99.90
34766;DHT22;20984;43.508;1.504;2022-12-07T13:42:33;11.90;99.90
34766;DHT22;20984;43.508;1.504;2022-12-07T13:45:22;11.90;99.90
34766;DHT22;20984;43.508;1.504;2022-12-07T13:47:53;12.00;99.90
34766;DHT22;20984;43.508;1.504;2022-12-07T13:50:27;12.00;99.90
34766;DHT22;20984;43.508;1.504;2022-12-07T13:52:58;12.00;99.90
34766;DHT22;20984;43.508;1.504;2022-12-07T13:55:25;11.90;99.90
34766;DHT22;20984;43.508;1.504;2022-12-07T13:57:54;11.90;99.90
34766;DHT22;20984;43.508;1.504;2022-12-07T14:03:03;11.90;99.90
34766;DHT22;20984;43.508;1.504;2022-12-07T14:05:31;12.00;99.90
34766;DHT22;20984;43.508;1.504;2022-12-07T14:08:03;12.00;99.90
34766;DHT22;20984;43.508;1.504;2022-12-07T14:10:32;11.90;99.90
34766;DHT22;20984;43.508;1.504;2022-12-07T14:12:59;11.80;99.90
34766;DHT22;20984;43.508;1.504;2022-12-07T14:17:57;11.70;99.90
34766;DHT22;20984;43.508;1.504;2022-12-07T14:22:58;11.50;99.90
34766;DHT22;20984;43.508;1.504;2022-12-07T14:25:28;11.40;99.90
34766;DHT22;20984;43.508;1.504;2022-12-07T14:28:02;11.40;99.90
34766;DHT22;20984;43.508;1.504;2022-12-07T14:30:33;11.30;99.90
34766;DHT22;20984;43.508;1.504;2022-12-07T14:33:01;11.30;99.90
34766;DHT22;20984;43.508;1.504;2022-12-07T14:35:29;11.30;99.90
34766;DHT22;20984;43.508;1.504;2022-12-07T14:37:55;11.30;99.90
34766;DHT22;20984;43.508;1.504;2022-12-07T14:40:26;11.30;99.90
34766;DHT22;20984;43.508;1.504;2022-12-07T14:43:05;11.30;99.90
34766;DHT22;20984;43.508;1.504;2022-12-07T14:45:32;11.40;99.90
34766;DHT22;20984;43.508;1.504;2022-12-07T14:47:58;11.30;99.90
34766;DHT22;20984;43.508;1.504;2022-12-07T14:50:24;11.40;99.90
34766;DHT22;20984;43.508;1.504;2022-12-07T14:52:59;11.40;99.90
34766;DHT22;20984;43.508;1.504;2022-12-07T14:55:29;11.30;99.90
34766;DHT22;20984;43.508;1.504;2022-12-07T14:57:56;11.20;99.90
34766;DHT22;20984;43.508;1.504;2022-12-07T15:00:26;11.20;99.90
34766;DHT22;20984;43.508;1.504;2022-12-07T15:02:52;11.10;99.90
34766;DHT22;20984;43.508;1.504;2022-12-07T15:05:18;11.10;99.90
34766;DHT22;20984;43.508;1.504;2022-12-07T15:07:45;10.90;99.90
34766;DHT22;20984;43.508;1.504;2022-12-07T15:10:23;10.80;99.90
34766;DHT22;20984;43.508;1.504;2022-12-07T15:12:50;10.60;99.90
34766;DHT22;20984;43.508;1.504;2022-12-07T15:15:16;10.40;99.90
34766;DHT22;20984;43.508;1.504;2022-12-07T15:17:43;10.30;99.90
34766;DHT22;20984;43.508;1.504;2022-12-07T15:20:14;10.20;99.90
34766;DHT22;20984;43.508;1.504;2022-12-07T15:22:42;10.10;99.90
34766;DHT22;20984;43.508;1.504;2022-12-07T15:25:09;10.00;99.90
34766;DHT22;20984;43.508;1.504;2022-12-07T15:27:37;9.90;99.90
34766;DHT22;20984;43.508;1.504;2022-12-07T15:30:04;9.90;99.90
34766;DHT22;20984;43.508;1.504;2022-12-07T15:32:30;9.80;99.90
34766;DHT22;20984;43.508;1.504;2022-12-07T15:34:56;9.70;99.90
34766;DHT22;20984;43.508;1.504;2022-12-07T15:37:21;9.60;99.90
34766;DHT22;20984;43.508;1.504;2022-12-07T15:39:47;9.50;99.90
34766;DHT22;20984;43.508;1.504;2022-12-07T15:42:13;9.40;99.90
34766;DHT22;20984;43.508;1.504;2022-12-07T15:44:39;9.30;99.90
34766;DHT22;20984;43.508;1.504;2022-12-07T15:47:23;9.20;99.90
34766;DHT22;20984;43.508;1.504;2022-12-07T15:49:49;9.10;99.90
34766;DHT22;20984;43.508;1.504;2022-12-07T15:52:15;9.00;99.90
34766;DHT22;20984;43.508;1.504;2022-12-07T15:54:41;9.00;99.90
34766;DHT22;20984;43.508;1.504;2022-12-07T15:57:07;9.00;99.90
34766;DHT22;20984;43.508;1.504;2022-12-07T15:59:33;9.00;99.90
34766;DHT22;20984;43.508;1.504;2022-12-07T16:01:59;8.90;99.90
34766;DHT22;20984;43.508;1.504;2022-12-07T16:04:27;8.80;99.90
34766;DHT22;20984;43.508;1.504;2022-12-07T16:06:54;8.80;99.90
34766;DHT22;20984;43.508;1.504;2022-12-07T16:09:19;8.70;99.90
34766;DHT22;20984;43.508;1.504;2022-12-07T16:11:46;8.70;99.90
34766;DHT22;20984;43.508;1.504;2022-12-07T16:14:12;8.70;99.90
34766;DHT22;20984;43.508;1.504;2022-12-07T16:16:38;8.70;99.90
34766;DHT22;20984;43.508;1.504;2022-12-07T16:19:06;8.70;99.90
34766;DHT22;20984;43.508;1.504;2022-12-07T16:21:33;8.60;99.90
34766;DHT22;20984;43.508;1.504;2022-12-07T16:24:00;8.50;99.90
34766;DHT22;20984;43.508;1.504;2022-12-07T16:26:25;8.30;99.90
34766;DHT22;20984;43.508;1.504;2022-12-07T16:28:52;8.20;99.90
34766;DHT22;20984;43.508;1.504;2022-12-07T16:31:24;8.20;99.90
34766;DHT22;20984;43.508;1.504;2022-12-07T16:33:53;8.10;99.90
34766;DHT22;20984;43.508;1.504;2022-12-07T16:36:19;8.00;99.90
34766;DHT22;20984;43.508;1.504;2022-12-07T16:38:47;7.90;99.90
34766;DHT22;20984;43.508;1.504;2022-12-07T16:41:14;7.80;99.90
34766;DHT22;20984;43.508;1.504;2022-12-07T16:43:40;7.70;99.90
34766;DHT22;20984;43.508;1.504;2022-12-07T16:46:06;7.60;99.90
34766;DHT22;20984;43.508;1.504;2022-12-07T16:48:38;7.60;99.90
34766;DHT22;20984;43.508;1.504;2022-12-07T16:51:06;7.70;99.90
34766;DHT22;20984;43.508;1.504;2022-12-07T16:53:32;7.70;99.90
34766;DHT22;20984;43.508;1.504;2022-12-07T16:55:58;7.60;99.90
34766;DHT22;20984;43.508;1.504;2022-12-07T16:58:24;7.50;99.90
34766;DHT22;20984;43.508;1.504;2022-12-07T17:00:49;7.40;99.90
34766;DHT22;20984;43.508;1.504;2022-12-07T17:03:15;7.30;99.90
34766;DHT22;20984;43.508;1.504;2022-12-07T17:05:44;7.20;99.90
34766;DHT22;20984;43.508;1.504;2022-12-07T17:08:11;7.10;99.90
34766;DHT22;20984;43.508;1.504;2022-12-07T17:10:39;7.10;99.90
34766;DHT22;20984;43.508;1.504;2022-12-07T17:13:05;7.10;99.90
34766;DHT22;20984;43.508;1.504;2022-12-07T17:16:00;7.20;99.90
34766;DHT22;20984;43.508;1.504;2022-12-07T17:18:28;7.30;99.90
34766;DHT22;20984;43.508;1.504;2022-12-07T17:20:54;7.40;99.90
34766;DHT22;20984;43.508;1.504;2022-12-07T17:23:20;7.40;99.90
34766;DHT22;20984;43.508;1.504;2022-12-07T17:25:45;7.30;99.90
34766;DHT22;20984;43.508;1.504;2022-12-07T17:28:11;7.30;99.90
34766;DHT22;20984;43.508;1.504;2022-12-07T17:30:38;7.20;99.90
34766;DHT22;20984;43.508;1.504;2022-12-07T17:33:04;7.10;99.90
34766;DHT22;20984;43.508;1.504;2022-12-07T17:35:30;7.10;99.90
34766;DHT22;20984;43.508;1.504;2022-12-07T17:37:56;7.00;99.90
34766;DHT22;20984;43.508;1.504;2022-12-07T17:40:21;7.10;99.90
34766;DHT22;20984;43.508;1.504;2022-12-07T17:42:47;7.10;99.90
34766;DHT22;20984;43.508;1.504;2022-12-07T17:45:16;7.00;99.90
34766;DHT22;20984;43.508;1.504;2022-12-07T17:47:43;7.00;99.90
34766;DHT22;20984;43.508;1.504;2022-12-07T17:50:09;6.90;99.90
34766;DHT22;20984;43.508;1.504;2022-12-07T17:52:40;6.80;99.90
34766;DHT22;20984;43.508;1.504;2022-12-07T17:55:24;6.70;99.90
34766;DHT22;20984;43.508;1.504;2022-12-07T17:57:50;6.60;99.90
34766;DHT22;20984;43.508;1.504;2022-12-07T18:00:17;6.60;99.90
34766;DHT22;20984;43.508;1.504;2022-12-07T18:02:44;6.50;99.90
34766;DHT22;20984;43.508;1.504;2022-12-07T18:05:10;6.50;99.90
34766;DHT22;20984;43.508;1.504;2022-12-07T18:07:35;6.40;99.90
34766;DHT22;20984;43.508;1.504;2022-12-07T18:10:02;6.30;99.90
34766;DHT22;20984;43.508;1.504;2022-12-07T18:12:31;6.30;99.90
34766;DHT22;20984;43.508;1.504;2022-12-07T18:14:57;6.20;99.90
34766;DHT22;20984;43.508;1.504;2022-12-07T18:17:23;6.10;99.90
34766;DHT22;20984;43.508;1.504;2022-12-07T18:19:49;6.10;99.90
34766;DHT22;20984;43.508;1.504;2022-12-07T18:22:15;6.00;99.90
34766;DHT22;20984;43.508;1.504;2022-12-07T18:24:40;6.00;99.90
34766;DHT22;20984;43.508;1.504;2022-12-07T18:27:06;5.90;99.90